Grizzly Air Cargo 5145


PAJN
Juneau International Airport
Juneau, Alaska, US
PAPG
Petersburg James A Johnson Airport
Petersburg, Alaska, US

Activity Log

Date Flight Route Aircraft Duration
No Flights Yet

Route Details

Aircraft Information
Primary: Boeing 727-200F
Backup: Boeing 737-800BCF
Route Data
Distance: 124nm
Sched. Duration: 0h 30m
Avg. Duration: 0h 00m (-30m)
Times Flown: 0
Recm'd Route: GLAZZ1 ODECO
Planned Altitude: 17,000ft
Origin Wx: PAJN 271753Z 12021KT 10SM -RA FEW007 SCT025 BKN080 04/02 A2947 RMK AO2 PK WND 12029/1738 SLP978 VIS LWR SE-S P0000 60016 T00390017 10050 20033 56031
Dest. Wx: PAPG 271756Z VRB03KT 6SM -RA BR OVC026 04/03 A2960 RMK AO2 SLP027 P0004 60033 T00390028 10050 20033 56017
Notes:

Financial History
Total Freight: 0lbs
Average Load: 0lbs/flt
Fuel Used: 0lbs
Avg. Fuel Used: 0lbs/flt
Fuel Expense: $0
Avg. Fuel Expense: $0
Avg. Fuel Cost: $0/lbs
Total Gross Income: $0
Pilot Pay: $0
Total Expenses: $0
Total Revenue: $0
Average Revenue: $0